createdAt,value
2023-05-20T00:00:11.151Z,14.20
2023-05-20T00:02:40.192Z,14.30
2023-05-20T00:05:09.705Z,14.20
2023-05-20T00:07:38.193Z,14.30
2023-05-20T00:10:07.123Z,14.30
2023-05-20T00:12:37.047Z,14.30
2023-05-20T00:15:06.463Z,14.30
2023-05-20T00:17:34.881Z,14.20
2023-05-20T00:20:05.553Z,14.20
2023-05-20T00:22:33.970Z,14.30
2023-05-20T00:25:02.507Z,14.30
2023-05-20T00:27:31.105Z,14.30
2023-05-20T00:30:01.104Z,14.30
2023-05-20T00:32:30.242Z,14.30
2023-05-20T00:34:59.226Z,14.30
2023-05-20T00:37:28.100Z,14.30
2023-05-20T00:39:56.654Z,14.30
2023-05-20T00:42:26.073Z,14.20
2023-05-20T00:44:55.428Z,14.20
2023-05-20T00:47:28.914Z,14.30
2023-05-20T00:49:57.800Z,14.20
2023-05-20T00:52:26.785Z,14.20
2023-05-20T00:54:55.267Z,14.10
2023-05-20T00:57:23.720Z,14.20
2023-05-20T00:59:52.372Z,14.10
2023-05-20T01:02:21.782Z,14.00
2023-05-20T01:04:52.184Z,14.10
2023-05-20T01:07:21.219Z,14.20
2023-05-20T01:09:49.706Z,14.20
2023-05-20T01:12:26.998Z,14.20
2023-05-20T01:15:00.666Z,14.20
2023-05-20T01:17:33.190Z,14.20
2023-05-20T01:20:09.659Z,14.20
2023-05-20T01:22:41.028Z,14.20
2023-05-20T01:25:11.170Z,14.20
2023-05-20T01:27:39.737Z,14.20
2023-05-20T01:30:10.056Z,14.20
2023-05-20T01:32:41.318Z,14.20
2023-05-20T01:35:11.159Z,14.20
2023-05-20T01:37:42.548Z,14.20
2023-05-20T01:40:13.296Z,14.20
2023-05-20T01:42:43.153Z,14.20
2023-05-20T01:45:12.759Z,14.20
2023-05-20T01:47:41.359Z,14.20
2023-05-20T01:50:10.523Z,14.20
2023-05-20T01:52:40.479Z,14.20
2023-05-20T01:55:09.582Z,14.20
2023-05-20T01:57:37.944Z,14.20
2023-05-20T02:00:08.097Z,14.20
2023-05-20T02:02:42.469Z,14.20
2023-05-20T02:05:13.552Z,14.20
2023-05-20T02:07:46.242Z,14.20
2023-05-20T02:10:14.945Z,14.20
2023-05-20T02:12:43.888Z,14.20
2023-05-20T02:15:13.028Z,14.30
2023-05-20T02:17:43.781Z,14.30
2023-05-20T02:20:14.103Z,14.20
2023-05-20T02:22:42.674Z,14.20
2023-05-20T02:25:14.214Z,14.20
2023-05-20T02:27:42.686Z,14.10
2023-05-20T02:30:11.715Z,14.20
2023-05-20T02:32:40.260Z,14.20
2023-05-20T02:35:09.359Z,14.20
2023-05-20T02:37:39.107Z,14.20
2023-05-20T02:40:11.122Z,14.20
2023-05-20T02:42:42.593Z,14.20
2023-05-20T02:45:11.845Z,14.20
2023-05-20T02:47:40.931Z,14.20
2023-05-20T02:50:10.097Z,14.20
2023-05-20T02:52:40.084Z,14.20
2023-05-20T02:55:10.072Z,14.20
2023-05-20T02:57:39.305Z,14.20
2023-05-20T03:00:12.267Z,14.20
2023-05-20T03:02:41.026Z,14.20
2023-05-20T03:05:11.010Z,14.20
2023-05-20T03:07:39.818Z,14.20
2023-05-20T03:10:10.867Z,14.20
2023-05-20T03:12:41.008Z,14.20
2023-05-20T03:15:13.726Z,14.20
2023-05-20T03:17:42.336Z,14.20
2023-05-20T03:20:12.905Z,14.20
2023-05-20T03:22:42.768Z,14.20
2023-05-20T03:25:11.871Z,14.20
2023-05-20T03:27:40.381Z,14.20
2023-05-20T03:30:11.539Z,14.20
2023-05-20T03:32:40.196Z,14.20
2023-05-20T03:35:10.108Z,14.20
2023-05-20T03:37:39.959Z,14.20
2023-05-20T03:40:10.892Z,14.20
2023-05-20T03:42:41.111Z,14.20
2023-05-20T03:45:12.710Z,14.20
2023-05-20T03:47:51.927Z,14.20
2023-05-20T03:50:20.835Z,14.20
2023-05-20T03:52:49.265Z,14.20
2023-05-20T03:55:21.521Z,14.20
2023-05-20T03:57:50.579Z,14.20
2023-05-20T04:00:20.613Z,14.20
2023-05-20T04:02:50.624Z,14.20
2023-05-20T04:05:20.907Z,14.30
2023-05-20T04:07:49.822Z,14.30
2023-05-20T04:10:21.602Z,14.30
2023-05-20T04:12:52.489Z,14.20
2023-05-20T04:15:25.428Z,14.20
2023-05-20T04:17:57.059Z,14.20
2023-05-20T04:20:26.682Z,14.20
2023-05-20T04:22:58.234Z,14.20
2023-05-20T04:25:27.581Z,14.20
2023-05-20T04:27:57.901Z,14.20
2023-05-20T04:30:27.977Z,14.20
2023-05-20T04:32:56.606Z,14.20
2023-05-20T04:35:26.268Z,14.20
2023-05-20T04:37:57.337Z,14.20
2023-05-20T04:40:25.893Z,14.20
2023-05-20T04:42:55.884Z,14.20
2023-05-20T04:45:25.344Z,14.20
2023-05-20T04:47:55.205Z,14.20
2023-05-20T04:50:23.999Z,14.20
2023-05-20T04:52:52.371Z,14.20
2023-05-20T04:55:21.680Z,14.20
2023-05-20T04:57:50.727Z,14.20
2023-05-20T05:00:19.745Z,14.20
2023-05-20T05:02:48.975Z,14.20
2023-05-20T05:05:19.600Z,14.20
2023-05-20T05:07:48.099Z,14.20
2023-05-20T05:10:16.949Z,14.20
2023-05-20T05:12:45.714Z,14.20
2023-05-20T05:15:14.282Z,14.20
2023-05-20T05:17:44.563Z,14.20
2023-05-20T05:20:13.765Z,14.20
2023-05-20T05:22:43.577Z,14.20
2023-05-20T05:25:13.108Z,14.20
2023-05-20T05:27:41.752Z,14.20
2023-05-20T05:30:11.557Z,14.20
2023-05-20T05:32:40.198Z,14.20
2023-05-20T05:35:09.101Z,14.20
2023-05-20T05:37:37.951Z,14.20
2023-05-20T05:40:10.298Z,14.20
2023-05-20T05:42:38.930Z,14.20
2023-05-20T05:45:10.660Z,14.20
2023-05-20T05:47:39.083Z,14.20
2023-05-20T05:50:08.046Z,14.20
2023-05-20T05:52:37.556Z,14.20
2023-05-20T05:55:11.834Z,14.30
2023-05-20T05:57:40.676Z,14.30
2023-05-20T06:00:11.256Z,14.20
2023-05-20T06:02:49.050Z,14.30
2023-05-20T06:05:38.718Z,14.30
2023-05-20T06:08:07.514Z,14.20
2023-05-20T06:10:39.025Z,14.20
2023-05-20T06:13:07.558Z,14.20
2023-05-20T06:15:36.675Z,14.20
2023-05-20T06:18:05.530Z,14.20
2023-05-20T06:20:35.075Z,14.20
2023-05-20T06:23:04.882Z,14.20
2023-05-20T06:26:01.370Z,14.20
2023-05-20T06:28:30.999Z,14.20
2023-05-20T06:30:59.746Z,14.20
2023-05-20T06:33:31.584Z,14.20
2023-05-20T06:36:04.051Z,14.20
2023-05-20T06:38:32.661Z,14.20
2023-05-20T06:41:02.745Z,14.20
2023-05-20T06:43:34.128Z,14.20
2023-05-20T06:46:07.398Z,14.20
2023-05-20T06:48:49.922Z,14.20
2023-05-20T06:51:19.074Z,14.20
2023-05-20T06:53:50.117Z,14.20
2023-05-20T06:56:20.083Z,14.30
2023-05-20T06:58:48.564Z,14.30
2023-05-20T07:01:18.456Z,14.30
2023-05-20T07:03:48.950Z,14.30
2023-05-20T07:06:17.405Z,14.30
2023-05-20T07:08:46.160Z,14.20
2023-05-20T07:11:15.282Z,14.30
2023-05-20T07:13:45.259Z,14.30
2023-05-20T07:16:14.291Z,14.30
2023-05-20T07:18:47.120Z,14.20
2023-05-20T07:21:15.911Z,14.20
2023-05-20T07:24:03.090Z,14.20
2023-05-20T07:26:33.756Z,14.20
2023-05-20T07:29:04.311Z,14.20
2023-05-20T07:31:33.486Z,14.20
2023-05-20T07:34:02.129Z,14.20
2023-05-20T07:36:30.894Z,14.30
2023-05-20T07:39:06.768Z,14.30
2023-05-20T07:41:38.545Z,14.20
2023-05-20T07:44:11.377Z,14.20
2023-05-20T07:46:42.943Z,14.20
2023-05-20T07:49:12.991Z,14.20
2023-05-20T07:51:42.140Z,14.20
2023-05-20T07:54:10.727Z,14.10
2023-05-20T07:56:39.309Z,14.20
2023-05-20T07:59:10.573Z,14.20
2023-05-20T08:01:45.529Z,14.20
2023-05-20T08:04:18.180Z,14.30
2023-05-20T08:06:47.871Z,14.30
2023-05-20T08:09:23.822Z,14.30
2023-05-20T08:11:56.178Z,14.30
2023-05-20T08:14:26.235Z,14.30
2023-05-20T08:16:56.088Z,14.30
2023-05-20T08:19:25.029Z,14.20
2023-05-20T08:21:53.571Z,14.20
2023-05-20T08:24:22.062Z,14.20
2023-05-20T08:26:50.700Z,14.20
2023-05-20T08:29:21.137Z,14.20
2023-05-20T08:31:52.394Z,14.30
2023-05-20T08:34:22.006Z,14.30
2023-05-20T08:36:50.526Z,14.30
2023-05-20T08:39:19.330Z,14.30
2023-05-20T08:41:48.902Z,14.30
2023-05-20T08:44:20.630Z,14.30
2023-05-20T08:46:51.800Z,14.30
2023-05-20T08:49:22.132Z,14.30
2023-05-20T08:51:50.679Z,14.30
2023-05-20T08:54:21.029Z,14.30
2023-05-20T08:56:49.827Z,14.30
2023-05-20T08:59:19.738Z,14.40
2023-05-20T09:01:48.391Z,14.30
2023-05-20T09:04:18.703Z,14.30
2023-05-20T09:06:47.989Z,14.30
2023-05-20T09:09:17.090Z,14.30
2023-05-20T09:11:45.542Z,14.30
2023-05-20T09:14:14.115Z,14.30
2023-05-20T09:16:42.770Z,14.30
2023-05-20T09:19:12.357Z,14.40
2023-05-20T09:21:43.142Z,14.30
2023-05-20T09:24:11.578Z,14.30
2023-05-20T09:26:40.170Z,14.30
2023-05-20T09:29:09.442Z,14.30
2023-05-20T09:31:39.124Z,14.40
2023-05-20T09:34:08.085Z,14.40
2023-05-20T09:36:37.605Z,14.30
2023-05-20T09:39:12.335Z,14.40
2023-05-20T09:41:45.484Z,14.40
2023-05-20T09:44:16.400Z,14.40
2023-05-20T09:46:47.203Z,14.40
2023-05-20T09:49:16.477Z,14.30
2023-05-20T09:51:45.766Z,14.30
2023-05-20T09:54:16.668Z,14.40
2023-05-20T09:56:46.219Z,14.30
2023-05-20T09:59:16.702Z,14.40
2023-05-20T10:01:46.012Z,14.40
2023-05-20T10:04:17.450Z,14.40
2023-05-20T10:07:01.940Z,14.40
2023-05-20T10:09:45.238Z,14.40
2023-05-20T10:12:23.636Z,14.40
2023-05-20T10:15:01.652Z,14.40
2023-05-20T10:17:41.600Z,14.30
2023-05-20T10:20:12.005Z,14.30
2023-05-20T10:22:41.238Z,14.30
2023-05-20T10:25:14.225Z,14.30
2023-05-20T10:27:47.048Z,14.30
2023-05-20T10:30:19.556Z,14.40
2023-05-20T10:32:54.511Z,14.40
2023-05-20T10:35:26.759Z,14.40
2023-05-20T10:37:56.646Z,14.40
2023-05-20T10:40:27.262Z,14.40
2023-05-20T10:43:01.125Z,14.40
2023-05-20T10:45:32.869Z,14.40
2023-05-20T10:48:01.432Z,14.40
2023-05-20T10:50:35.366Z,14.40
2023-05-20T10:53:09.496Z,14.30
2023-05-20T10:55:49.564Z,14.40
2023-05-20T10:58:18.109Z,14.40
2023-05-20T11:00:47.621Z,14.30
2023-05-20T11:03:20.481Z,14.30
2023-05-20T11:05:49.260Z,14.40
2023-05-20T11:08:28.443Z,14.40
2023-05-20T11:10:59.513Z,14.40
2023-05-20T11:13:28.886Z,14.40
2023-05-20T11:15:58.347Z,14.40
2023-05-20T11:18:30.510Z,14.40
2023-05-20T11:20:59.286Z,14.40
2023-05-20T11:23:28.771Z,14.40
2023-05-20T11:25:59.095Z,14.40
2023-05-20T11:28:27.655Z,14.40
2023-05-20T11:30:57.000Z,14.40
2023-05-20T11:33:28.013Z,14.30
2023-05-20T11:35:56.643Z,14.30
2023-05-20T11:38:25.910Z,14.40
2023-05-20T11:40:56.225Z,14.30
2023-05-20T11:43:26.859Z,14.30
2023-05-20T11:45:56.809Z,14.30
2023-05-20T11:48:26.121Z,14.30
2023-05-20T11:50:55.979Z,14.30
2023-05-20T11:53:25.962Z,14.30
2023-05-20T11:55:55.751Z,14.40
2023-05-20T11:58:27.541Z,14.40
2023-05-20T12:01:05.120Z,14.40
2023-05-20T12:03:37.918Z,14.40
2023-05-20T12:06:06.668Z,14.40
2023-05-20T12:08:35.116Z,14.40
2023-05-20T12:11:03.702Z,14.40
2023-05-20T12:13:35.266Z,14.40
2023-05-20T12:16:05.818Z,14.40
2023-05-20T12:18:34.458Z,14.30
2023-05-20T12:21:03.157Z,14.40
2023-05-20T12:23:34.225Z,14.40
2023-05-20T12:26:03.060Z,14.40
2023-05-20T12:28:32.478Z,14.40
2023-05-20T12:31:02.520Z,14.40
2023-05-20T12:33:32.438Z,14.40
2023-05-20T12:36:01.207Z,14.40
2023-05-20T12:38:29.664Z,14.40
2023-05-20T12:40:58.216Z,14.40
2023-05-20T12:43:26.601Z,14.40
2023-05-20T12:45:55.321Z,14.40
2023-05-20T12:48:25.183Z,14.40
2023-05-20T12:50:53.898Z,14.40
2023-05-20T12:53:22.414Z,14.40
2023-05-20T12:55:50.900Z,14.40
2023-05-20T12:58:19.301Z,14.40
2023-05-20T13:00:47.820Z,14.40
2023-05-20T13:03:16.399Z,14.40
2023-05-20T13:05:46.536Z,14.40
2023-05-20T13:08:15.126Z,14.40
2023-05-20T13:10:43.753Z,14.40
2023-05-20T13:13:13.923Z,14.40
2023-05-20T13:15:42.216Z,14.40
2023-05-20T13:18:11.239Z,14.40
2023-05-20T13:20:40.612Z,14.40
2023-05-20T13:23:10.834Z,14.40
2023-05-20T13:25:39.628Z,14.40
2023-05-20T13:28:08.343Z,14.40
2023-05-20T13:30:37.014Z,14.40
2023-05-20T13:33:05.703Z,14.40
2023-05-20T13:35:35.044Z,14.50
2023-05-20T13:38:03.519Z,14.40
2023-05-20T13:40:33.790Z,14.50
2023-05-20T13:43:02.459Z,14.40
2023-05-20T13:45:30.892Z,14.40
2023-05-20T13:47:59.490Z,14.40
2023-05-20T13:50:28.384Z,14.40
2023-05-20T13:52:56.889Z,14.50
2023-05-20T13:55:25.270Z,14.50
2023-05-20T13:57:55.765Z,14.50
2023-05-20T14:00:24.249Z,14.50
2023-05-20T14:02:53.700Z,14.50
2023-05-20T14:05:23.289Z,14.50
2023-05-20T14:07:52.627Z,14.50
2023-05-20T14:10:21.305Z,14.40
2023-05-20T14:12:49.759Z,14.40
2023-05-20T14:15:19.798Z,14.50
2023-05-20T14:17:49.323Z,14.50
2023-05-20T14:20:18.316Z,14.50
2023-05-20T14:22:46.813Z,14.50
2023-05-20T14:25:15.256Z,14.50
2023-05-20T14:27:43.755Z,14.50
2023-05-20T14:30:13.093Z,14.50
2023-05-20T14:32:43.030Z,14.50
2023-05-20T14:35:11.677Z,14.50
2023-05-20T14:37:43.084Z,14.50
2023-05-20T14:40:12.522Z,14.50
2023-05-20T14:42:41.094Z,14.50
2023-05-20T14:45:10.835Z,14.50
2023-05-20T14:47:40.300Z,14.50
2023-05-20T14:50:10.786Z,14.50
2023-05-20T14:52:39.327Z,14.50
2023-05-20T14:55:08.308Z,14.50
2023-05-20T14:57:36.698Z,14.50
2023-05-20T15:00:06.061Z,14.50
2023-05-20T15:02:35.491Z,14.50
2023-05-20T15:05:03.997Z,14.50
2023-05-20T15:07:34.618Z,14.50
2023-05-20T15:10:03.208Z,14.50
2023-05-20T15:12:31.682Z,14.50
2023-05-20T15:15:00.233Z,14.50
2023-05-20T15:17:29.178Z,14.60
2023-05-20T15:19:57.652Z,14.50
2023-05-20T15:22:26.148Z,14.50
2023-05-20T15:24:56.174Z,14.50
2023-05-20T15:27:24.800Z,14.60
2023-05-20T15:29:53.221Z,14.50
2023-05-20T15:32:21.783Z,14.50
2023-05-20T15:34:50.123Z,14.50
2023-05-20T15:37:18.585Z,14.60
2023-05-20T15:39:46.957Z,14.50
2023-05-20T15:42:18.631Z,14.50
2023-05-20T15:44:47.232Z,14.50
2023-05-20T15:47:15.653Z,14.50
2023-05-20T15:49:44.268Z,14.50
2023-05-20T15:52:14.142Z,14.60
2023-05-20T15:54:42.789Z,14.60
2023-05-20T15:57:11.739Z,14.50
2023-05-20T15:59:41.509Z,14.50
2023-05-20T16:02:09.949Z,14.60
2023-05-20T16:04:38.471Z,14.50
2023-05-20T16:07:06.924Z,14.60
2023-05-20T16:09:35.728Z,14.60
2023-05-20T16:12:04.615Z,14.60
2023-05-20T16:14:33.702Z,14.60
2023-05-20T16:17:03.697Z,14.50
2023-05-20T16:19:32.289Z,14.50
2023-05-20T16:22:00.773Z,14.50
2023-05-20T16:24:29.415Z,14.60
2023-05-20T16:26:57.903Z,14.60
2023-05-20T16:29:26.328Z,14.60
2023-05-20T16:31:54.886Z,14.60
2023-05-20T16:34:24.849Z,14.60
2023-05-20T16:36:53.554Z,14.60
2023-05-20T16:39:21.991Z,14.60
2023-05-20T16:41:50.726Z,14.60
2023-05-20T16:44:19.158Z,14.60
2023-05-20T16:46:47.614Z,14.60
2023-05-20T16:49:16.111Z,14.60
2023-05-20T16:51:46.934Z,14.60
2023-05-20T16:54:15.507Z,14.60
2023-05-20T16:56:43.972Z,14.60
2023-05-20T16:59:14.745Z,14.60
2023-05-20T17:01:43.348Z,14.60
2023-05-20T17:04:12.006Z,14.60
2023-05-20T17:06:40.504Z,14.50
2023-05-20T17:09:10.426Z,14.60
2023-05-20T17:11:39.039Z,14.50
2023-05-20T17:14:07.453Z,14.60
2023-05-20T17:16:36.167Z,14.60
2023-05-20T17:19:04.724Z,14.60
2023-05-20T17:21:34.631Z,14.60
2023-05-20T17:24:03.230Z,14.60
2023-05-20T17:26:33.214Z,14.60
2023-05-20T17:29:01.669Z,14.60
2023-05-20T17:31:30.172Z,14.60
2023-05-20T17:33:58.641Z,14.60
2023-05-20T17:36:27.626Z,14.60
2023-05-20T17:38:56.263Z,14.60
2023-05-20T17:41:24.807Z,14.60
2023-05-20T17:43:54.788Z,14.60
2023-05-20T17:46:23.453Z,14.60
2023-05-20T17:48:51.841Z,14.60
2023-05-20T17:51:20.757Z,14.60
2023-05-20T17:53:49.221Z,14.60
2023-05-20T17:56:18.076Z,14.60
2023-05-20T17:58:47.021Z,14.60
2023-05-20T18:01:17.628Z,14.70
2023-05-20T18:03:46.322Z,14.60
2023-05-20T18:06:15.034Z,14.60
2023-05-20T18:08:43.595Z,14.70
2023-05-20T18:11:12.151Z,14.70
2023-05-20T18:13:40.761Z,14.70
2023-05-20T18:16:38.700Z,14.60
2023-05-20T18:19:07.412Z,14.60
2023-05-20T18:21:37.497Z,14.60
2023-05-20T18:24:06.562Z,14.70
2023-05-20T18:26:35.073Z,14.60
2023-05-20T18:29:03.554Z,14.70
2023-05-20T18:31:32.207Z,14.60
2023-05-20T18:34:02.999Z,14.70
2023-05-20T18:36:31.630Z,14.60
2023-05-20T18:38:59.982Z,14.60
2023-05-20T18:41:43.170Z,14.60
2023-05-20T18:44:15.334Z,14.60
2023-05-20T18:46:43.899Z,14.60
2023-05-20T18:49:13.575Z,14.60
2023-05-20T18:51:42.251Z,14.60
2023-05-20T18:54:10.452Z,14.80
2023-05-20T18:56:38.892Z,14.80
2023-05-20T18:59:07.443Z,14.90
2023-05-20T19:01:36.803Z,15.00
2023-05-20T19:04:05.448Z,15.00
2023-05-20T19:06:37.709Z,14.90
2023-05-20T19:09:06.403Z,14.90
2023-05-20T19:11:34.922Z,15.00
2023-05-20T19:14:04.570Z,15.00
2023-05-20T19:16:33.279Z,15.00
2023-05-20T19:19:01.573Z,15.00
2023-05-20T19:21:30.779Z,15.00
2023-05-20T19:24:01.259Z,15.00
2023-05-20T19:26:29.765Z,15.00
2023-05-20T19:28:57.999Z,15.00
2023-05-20T19:31:26.796Z,15.10
2023-05-20T19:33:55.050Z,15.00
2023-05-20T19:36:23.269Z,15.10
2023-05-20T19:38:51.581Z,15.10
2023-05-20T19:41:21.663Z,15.10
2023-05-20T19:43:50.036Z,15.10
2023-05-20T19:46:18.448Z,15.10
2023-05-20T19:48:46.788Z,15.10
2023-05-20T19:51:15.244Z,15.10
2023-05-20T19:53:43.671Z,15.10
2023-05-20T19:56:12.649Z,15.10
2023-05-20T19:58:42.880Z,15.10
2023-05-20T20:01:11.278Z,15.20
2023-05-20T20:03:40.069Z,15.20
2023-05-20T20:06:08.796Z,15.20
2023-05-20T20:08:39.537Z,15.10
2023-05-20T20:11:08.937Z,15.10
2023-05-20T20:13:37.426Z,15.00
2023-05-20T20:16:07.849Z,15.00
2023-05-20T20:18:36.171Z,15.00
2023-05-20T20:21:06.129Z,15.00
2023-05-20T20:23:36.785Z,15.00
2023-05-20T20:26:06.257Z,15.00
2023-05-20T20:28:34.535Z,15.00
2023-05-20T20:31:03.028Z,15.00
2023-05-20T20:33:33.112Z,15.00
2023-05-20T20:36:02.475Z,14.90
2023-05-20T20:38:30.867Z,14.90
2023-05-20T20:40:59.901Z,14.90
2023-05-20T20:43:28.951Z,14.90
2023-05-20T20:45:57.491Z,14.90
2023-05-20T20:48:27.607Z,14.90
2023-05-20T20:51:02.113Z,14.90
2023-05-20T20:53:30.764Z,14.90
2023-05-20T20:55:58.995Z,14.90
2023-05-20T20:58:27.749Z,14.90
2023-05-20T21:00:56.147Z,14.90
2023-05-20T21:03:26.466Z,14.90
2023-05-20T21:05:55.250Z,14.90
2023-05-20T21:08:27.831Z,14.90
2023-05-20T21:10:59.440Z,14.90
2023-05-20T21:13:28.333Z,14.90
2023-05-20T21:15:56.873Z,14.80
2023-05-20T21:18:25.558Z,14.80
2023-05-20T21:20:54.810Z,14.80
2023-05-20T21:23:24.901Z,14.90
2023-05-20T21:25:53.296Z,14.80
2023-05-20T21:28:21.956Z,14.80
2023-05-20T21:30:50.476Z,14.80
2023-05-20T21:33:18.848Z,14.80
2023-05-20T21:35:47.099Z,14.80
2023-05-20T21:38:15.569Z,14.80
2023-05-20T21:40:45.455Z,14.80
2023-05-20T21:43:13.740Z,14.80
2023-05-20T21:45:42.070Z,14.80
2023-05-20T21:48:11.183Z,14.80
2023-05-20T21:50:39.470Z,14.80
2023-05-20T21:53:07.732Z,14.80
2023-05-20T21:55:36.221Z,14.80
2023-05-20T21:58:06.016Z,14.80
2023-05-20T22:00:35.095Z,14.80
2023-05-20T22:03:03.548Z,14.80
2023-05-20T22:05:34.055Z,14.80
2023-05-20T22:08:02.879Z,14.80
2023-05-20T22:10:34.102Z,14.80
2023-05-20T22:13:03.117Z,14.80
2023-05-20T22:15:33.125Z,14.80
2023-05-20T22:18:04.183Z,14.80
2023-05-20T22:20:34.412Z,14.80
2023-05-20T22:23:04.576Z,14.80
2023-05-20T22:25:33.008Z,14.90
2023-05-20T22:28:01.396Z,14.80
2023-05-20T22:30:29.734Z,14.80
2023-05-20T22:32:59.461Z,14.80
2023-05-20T22:35:27.799Z,14.90
2023-05-20T22:37:57.353Z,14.80
2023-05-20T22:40:25.646Z,14.90
2023-05-20T22:42:53.886Z,14.80
2023-05-20T22:45:22.101Z,14.80
2023-05-20T22:47:51.192Z,14.80
2023-05-20T22:50:20.910Z,14.80
2023-05-20T22:52:49.173Z,14.80
2023-05-20T22:55:17.805Z,14.80
2023-05-20T22:57:46.016Z,14.80
2023-05-20T23:00:15.538Z,14.80
2023-05-20T23:02:45.837Z,14.80
2023-05-20T23:05:14.250Z,14.80
2023-05-20T23:07:44.700Z,14.80
2023-05-20T23:10:13.006Z,14.80
2023-05-20T23:12:41.303Z,14.90
2023-05-20T23:15:10.968Z,15.00
2023-05-20T23:17:40.634Z,15.00
2023-05-20T23:20:11.228Z,15.00
2023-05-20T23:22:40.080Z,15.10
2023-05-20T23:25:10.924Z,15.10
2023-05-20T23:27:39.410Z,15.10
2023-05-20T23:30:09.480Z,15.10
2023-05-20T23:32:38.177Z,15.10
2023-05-20T23:35:07.507Z,15.20
2023-05-20T23:37:36.129Z,15.20
2023-05-20T23:40:05.877Z,15.20
2023-05-20T23:42:35.596Z,15.20
2023-05-20T23:45:04.420Z,15.20
2023-05-20T23:47:32.741Z,15.20
2023-05-20T23:50:01.369Z,15.20
2023-05-20T23:52:29.638Z,15.20
2023-05-20T23:54:58.632Z,15.20
2023-05-20T23:57:26.909Z,15.30
2023-05-20T23:59:56.541Z,15.30
